createdAt,value
2023-04-02T00:01:02.838Z,100533.13
2023-04-02T00:03:42.674Z,100539.83
2023-04-02T00:06:30.390Z,100542.92
2023-04-02T00:09:15.309Z,100545.16
2023-04-02T00:11:54.926Z,100547.58
2023-04-02T00:14:27.370Z,100546.23
2023-04-02T00:16:56.829Z,100556.52
2023-04-02T00:19:31.953Z,100558.58
2023-04-02T00:22:02.220Z,100562.02
2023-04-02T00:24:30.384Z,100564.44
2023-04-02T00:26:58.567Z,100565.98
2023-04-02T00:29:27.261Z,100570.29
2023-04-02T00:31:58.941Z,100576.64
2023-04-02T00:34:36.610Z,100573.20
2023-04-02T00:37:05.416Z,100575.26
2023-04-02T00:39:42.153Z,100576.64
2023-04-02T00:42:13.102Z,100572.17
2023-04-02T00:44:44.399Z,100581.29
2023-04-02T00:47:26.983Z,100585.41
2023-04-02T00:50:05.735Z,100589.02
2023-04-02T00:52:35.548Z,100589.70
2023-04-02T00:55:23.342Z,100588.15
2023-04-02T00:58:00.455Z,100589.20
2023-04-02T01:00:35.007Z,100594.70
2023-04-02T01:03:13.231Z,100595.55
2023-04-02T01:05:45.449Z,100599.84
2023-04-02T01:08:37.970Z,100605.86
2023-04-02T01:11:24.671Z,100608.27
2023-04-02T01:14:30.872Z,100606.21
2023-04-02T01:17:06.114Z,100606.73
2023-04-02T01:19:40.102Z,100608.09
2023-04-02T01:22:31.010Z,100606.71
2023-04-02T01:24:59.479Z,100617.73
2023-04-02T01:27:35.102Z,100614.97
2023-04-02T01:30:07.542Z,100617.19
2023-04-02T01:32:35.958Z,100622.52
2023-04-02T01:35:04.659Z,100618.24
2023-04-02T01:37:45.111Z,100618.92
2023-04-02T01:40:28.669Z,100623.05
2023-04-02T01:43:06.225Z,100628.72
2023-04-02T01:45:35.508Z,100631.99
2023-04-02T01:48:14.919Z,100640.58
2023-04-02T01:50:46.110Z,100639.71
2023-04-02T01:53:16.763Z,100643.51
2023-04-02T01:55:48.893Z,100647.80
2023-04-02T01:58:20.633Z,100652.95
2023-04-02T02:01:21.740Z,100651.75
2023-04-02T02:03:52.466Z,100652.61
2023-04-02T02:06:22.865Z,100657.24
2023-04-02T02:09:04.640Z,100657.42
2023-04-02T02:11:36.491Z,100663.45
2023-04-02T02:14:18.856Z,100664.29
2023-04-02T02:16:48.223Z,100666.71
2023-04-02T02:19:35.352Z,100672.21
2023-04-02T02:22:14.080Z,100678.75
2023-04-02T02:24:42.875Z,100677.02
2023-04-02T02:27:24.027Z,100680.64
2023-04-02T02:30:01.864Z,100685.95
2023-04-02T02:32:33.327Z,100689.05
2023-04-02T02:35:12.022Z,100691.79
2023-04-02T02:37:46.512Z,100690.94
2023-04-02T02:40:27.711Z,100693.50
2023-04-02T02:43:01.454Z,100698.32
2023-04-02T02:45:38.059Z,100700.73
2023-04-02T02:48:13.956Z,100698.15
2023-04-02T02:50:43.939Z,100698.33
2023-04-02T02:53:23.107Z,100694.71
2023-04-02T02:55:59.823Z,100698.67
2023-04-02T02:58:34.322Z,100703.66
2023-04-02T03:01:18.858Z,100709.00
2023-04-02T03:03:52.582Z,100712.27
2023-04-02T03:06:21.925Z,100722.73
2023-04-02T03:09:05.126Z,100724.63
2023-04-02T03:12:00.393Z,100724.80
2023-04-02T03:14:38.185Z,100731.33
2023-04-02T03:17:55.654Z,100734.27
2023-04-02T03:20:34.115Z,100741.30
2023-04-02T03:23:16.172Z,100747.31
2023-04-02T03:26:08.375Z,100750.06
2023-04-02T03:28:41.732Z,100752.48
2023-04-02T03:31:23.386Z,100752.30
2023-04-02T03:33:56.968Z,100754.37
2023-04-02T03:36:38.492Z,100759.36
2023-04-02T03:39:18.696Z,100760.39
2023-04-02T03:41:55.151Z,100767.79
2023-04-02T03:44:35.532Z,100766.76
2023-04-02T03:47:18.260Z,100766.92
2023-04-02T03:50:01.874Z,100773.45
2023-04-02T03:52:31.382Z,100781.70
2023-04-02T03:55:10.513Z,100785.48
2023-04-02T03:57:58.529Z,100787.73
2023-04-02T04:00:34.613Z,100784.64
2023-04-02T04:03:25.881Z,100794.08
2023-04-02T04:06:02.452Z,100793.89
2023-04-02T04:08:42.666Z,100798.19
2023-04-02T04:11:16.793Z,100803.16
2023-04-02T04:13:53.722Z,100818.28
2023-04-02T04:16:28.903Z,100825.16
2023-04-02T04:19:08.321Z,100829.11
2023-04-02T04:21:39.560Z,100833.05
2023-04-02T04:24:21.980Z,100833.92
2023-04-02T04:27:04.276Z,100837.53
2023-04-02T04:29:53.870Z,100850.77
2023-04-02T04:32:34.269Z,100852.14
2023-04-02T04:35:33.140Z,100856.09
2023-04-02T04:38:10.273Z,100860.55
2023-04-02T04:40:52.515Z,100858.15
2023-04-02T04:43:50.582Z,100870.86
2023-04-02T04:46:31.096Z,100872.09
2023-04-02T04:49:03.240Z,100873.11
2023-04-02T04:51:53.701Z,100872.94
2023-04-02T04:54:28.925Z,100881.17
2023-04-02T04:57:02.638Z,100893.02
2023-04-02T04:59:45.923Z,100898.53
2023-04-02T05:02:26.792Z,100906.63
2023-04-02T05:04:56.982Z,100911.27
2023-04-02T05:07:30.261Z,100906.31
2023-04-02T05:10:15.733Z,100904.06
2023-04-02T05:12:52.701Z,100907.13
2023-04-02T05:15:25.867Z,100906.63
2023-04-02T05:18:17.789Z,100909.55
2023-04-02T05:20:56.862Z,100919.15
2023-04-02T05:23:39.238Z,100920.69
2023-04-02T05:26:19.389Z,100924.12
2023-04-02T05:29:11.806Z,100928.24
2023-04-02T05:31:48.981Z,100930.81
2023-04-02T05:34:25.995Z,100932.52
2023-04-02T05:36:56.344Z,100941.29
2023-04-02T05:39:26.966Z,100942.31
2023-04-02T05:42:05.670Z,100957.80
2023-04-02T05:45:19.339Z,100960.04
2023-04-02T05:47:51.938Z,100964.70
2023-04-02T05:50:30.504Z,100961.80
2023-04-02T05:53:37.585Z,100972.98
2023-04-02T05:56:19.083Z,100977.09
2023-04-02T05:59:00.134Z,100978.98
2023-04-02T06:01:39.195Z,100987.09
2023-04-02T06:04:45.562Z,100988.46
2023-04-02T06:07:22.762Z,100993.94
2023-04-02T06:10:05.946Z,100994.64
2023-04-02T06:12:55.529Z,100996.52
2023-04-02T06:15:24.477Z,101002.36
2023-04-02T06:18:01.527Z,101013.35
2023-04-02T06:20:29.940Z,101020.75
2023-04-02T06:23:19.872Z,101024.20
2023-04-02T06:25:59.295Z,101021.64
2023-04-02T06:28:41.963Z,101028.34
2023-04-02T06:31:25.562Z,101030.04
2023-04-02T06:33:56.515Z,101037.80
2023-04-02T06:36:28.088Z,101039.18
2023-04-02T06:39:07.775Z,101049.51
2023-04-02T06:41:36.660Z,101061.20
2023-04-02T06:44:28.320Z,101062.60
2023-04-02T06:47:30.057Z,101060.02
2023-04-02T06:50:20.448Z,101063.78
2023-04-02T06:52:53.724Z,101067.55
2023-04-02T06:55:59.804Z,101080.13
2023-04-02T06:58:31.366Z,101088.59
2023-04-02T07:01:00.754Z,101094.11
2023-04-02T07:03:36.660Z,101106.36
2023-04-02T07:06:17.893Z,101110.33
2023-04-02T07:08:47.444Z,101097.98
2023-04-02T07:11:20.780Z,101104.20
2023-04-02T07:13:51.013Z,101108.87
2023-04-02T07:16:21.822Z,101110.95
2023-04-02T07:18:50.707Z,101115.77
2023-04-02T07:21:19.674Z,101110.11
2023-04-02T07:23:48.268Z,101109.09
2023-04-02T07:26:20.014Z,101116.67
2023-04-02T07:28:48.639Z,101123.20
2023-04-02T07:31:28.199Z,101126.83
2023-04-02T07:34:00.306Z,101131.98
2023-04-02T07:36:30.768Z,101137.33
2023-04-02T07:38:59.636Z,101141.30
2023-04-02T07:41:28.496Z,101148.36
2023-04-02T07:43:56.871Z,101155.79
2023-04-02T07:46:26.110Z,101160.25
2023-04-02T07:48:54.697Z,101162.48
2023-04-02T07:51:26.134Z,101170.40
2023-04-02T07:53:57.298Z,101176.59
2023-04-02T07:56:25.888Z,101177.98
2023-04-02T07:58:54.545Z,101177.83
2023-04-02T08:01:25.906Z,101185.04
2023-04-02T08:03:56.882Z,101189.00
2023-04-02T08:06:25.699Z,101190.71
2023-04-02T08:08:54.132Z,101201.04
2023-04-02T08:11:22.302Z,101201.58
2023-04-02T08:13:50.754Z,101205.02
2023-04-02T08:16:19.323Z,101206.41
2023-04-02T08:18:47.931Z,101205.40
2023-04-02T08:21:16.976Z,101209.52
2023-04-02T08:23:45.563Z,101219.52
2023-04-02T08:26:18.735Z,101226.61
2023-04-02T08:28:46.913Z,101225.25
2023-04-02T08:31:15.108Z,101228.88
2023-04-02T08:33:43.230Z,101231.13
2023-04-02T08:36:18.764Z,101231.14
2023-04-02T08:38:47.154Z,101233.39
2023-04-02T08:41:23.185Z,101238.55
2023-04-02T08:44:09.582Z,101246.84
2023-04-02T08:46:42.717Z,101251.50
2023-04-02T08:49:14.449Z,101246.36
2023-04-02T08:51:42.803Z,101253.95
2023-04-02T08:54:34.718Z,101251.54
2023-04-02T08:57:20.244Z,101258.27
2023-04-02T08:59:57.782Z,101260.84
2023-04-02T09:02:36.160Z,101263.42
2023-04-02T09:05:07.746Z,101264.30
2023-04-02T09:07:36.373Z,101271.52
2023-04-02T09:10:04.823Z,101275.48
2023-04-02T09:12:32.931Z,101288.06
2023-04-02T09:15:36.973Z,101289.27
2023-04-02T09:18:16.997Z,101300.83
2023-04-02T09:20:48.126Z,101298.61
2023-04-02T09:23:26.207Z,101308.63
2023-04-02T09:26:03.990Z,101303.80
2023-04-02T09:28:33.139Z,101312.27
2023-04-02T09:31:12.096Z,101313.48
2023-04-02T09:33:51.777Z,101321.92
2023-04-02T09:36:40.575Z,101337.42
2023-04-02T09:39:25.836Z,101334.83
2023-04-02T09:42:04.938Z,101339.98
2023-04-02T09:44:34.781Z,101347.41
2023-04-02T09:47:07.696Z,101348.30
2023-04-02T09:49:38.743Z,101355.20
2023-04-02T09:52:19.855Z,101359.73
2023-04-02T09:55:16.072Z,101364.21
2023-04-02T09:57:45.629Z,101364.56
2023-04-02T10:02:47.237Z,101383.37
2023-04-02T10:05:30.141Z,101386.67
2023-04-02T10:08:16.664Z,101389.61
2023-04-02T10:10:50.801Z,101401.70
2023-04-02T10:13:52.807Z,101402.95
2023-04-02T10:16:33.172Z,101405.73
2023-04-02T10:19:14.998Z,101413.16
2023-04-02T10:21:44.747Z,101414.55
2023-04-02T10:24:14.570Z,101423.70
2023-04-02T10:27:02.988Z,101428.54
2023-04-02T10:29:49.013Z,101435.11
2023-04-02T10:32:31.150Z,101438.92
2023-04-02T10:35:05.853Z,101445.48
2023-04-02T10:37:47.168Z,101447.92
2023-04-02T10:40:27.755Z,101445.52
2023-04-02T10:43:36.516Z,101460.02
2023-04-02T10:46:36.816Z,101455.04
2023-04-02T10:49:32.442Z,101457.65
2023-04-02T10:52:13.769Z,101458.54
2023-04-02T10:54:59.717Z,101476.48
2023-04-02T10:57:39.047Z,101473.92
2023-04-02T11:00:16.957Z,101483.41
2023-04-02T11:03:15.127Z,101485.17
2023-04-02T11:05:49.837Z,101495.88
2023-04-02T11:08:23.916Z,101497.98
2023-04-02T11:11:08.017Z,101499.38
2023-04-02T11:14:14.128Z,101494.92
2023-04-02T11:16:44.796Z,101502.38
2023-04-02T11:19:18.836Z,101512.23
2023-04-02T11:22:07.015Z,101521.21
2023-04-02T11:24:44.651Z,101518.98
2023-04-02T11:27:16.515Z,101515.42
2023-04-02T11:29:45.107Z,101523.36
2023-04-02T11:32:22.353Z,101525.59
2023-04-02T11:35:02.947Z,101534.58
2023-04-02T11:37:38.407Z,101540.46
2023-04-02T11:40:12.992Z,101536.16
2023-04-02T11:42:43.140Z,101544.27
2023-04-02T11:45:21.183Z,101550.14
2023-04-02T11:48:02.098Z,101544.29
2023-04-02T11:50:33.058Z,101544.30
2023-04-02T11:53:10.618Z,101543.96
2023-04-02T11:55:42.537Z,101539.64
2023-04-02T11:58:23.099Z,101552.08
2023-04-02T12:01:09.250Z,101554.52
2023-04-02T12:03:59.574Z,101557.63
2023-04-02T12:06:46.858Z,101562.66
2023-04-02T12:09:22.562Z,101568.71
2023-04-02T12:11:52.658Z,101573.04
2023-04-02T12:14:36.625Z,101573.73
2023-04-02T12:17:15.460Z,101578.39
2023-04-02T12:19:52.568Z,101585.14
2023-04-02T12:22:24.841Z,101589.14
2023-04-02T12:24:54.746Z,101590.38
2023-04-02T12:27:27.811Z,101590.56
2023-04-02T12:30:12.710Z,101595.06
2023-04-02T12:32:40.944Z,101601.98
2023-04-02T12:35:28.334Z,101609.61
2023-04-02T12:37:58.108Z,101609.30
2023-04-02T12:40:26.810Z,101614.67
2023-04-02T12:42:54.946Z,101619.17
2023-04-02T12:45:30.818Z,101620.06
2023-04-02T12:48:03.066Z,101622.48
2023-04-02T12:50:32.207Z,101626.30
2023-04-02T12:53:01.399Z,101627.67
2023-04-02T12:55:30.708Z,101633.23
2023-04-02T12:58:00.674Z,101632.54
2023-04-02T13:00:31.101Z,101638.77
2023-04-02T13:03:05.349Z,101633.40
2023-04-02T13:05:42.713Z,101641.35
2023-04-02T13:08:33.399Z,101641.87
2023-04-02T13:11:03.987Z,101648.09
2023-04-02T13:13:43.992Z,101647.75
2023-04-02T13:16:15.419Z,101648.61
2023-04-02T13:18:46.113Z,101651.38
2023-04-02T13:21:19.088Z,101657.42
2023-04-02T13:23:47.669Z,101661.73
2023-04-02T13:26:24.884Z,101655.13
2023-04-02T13:29:04.791Z,101660.30
2023-04-02T13:31:33.459Z,101664.27
2023-04-02T13:34:02.370Z,101653.33
2023-04-02T13:36:30.847Z,101655.23
2023-04-02T13:38:59.125Z,101662.15
2023-04-02T13:41:33.847Z,101666.64
2023-04-02T13:44:03.354Z,101665.77
2023-04-02T13:46:34.495Z,101669.57
2023-04-02T13:49:02.689Z,101672.83
2023-04-02T13:51:37.814Z,101675.42
2023-04-02T13:54:13.901Z,101655.64
2023-04-02T13:56:42.059Z,101672.45
2023-04-02T13:59:10.636Z,101677.83
2023-04-02T14:01:39.879Z,101680.77
2023-04-02T14:04:10.342Z,101682.16
2023-04-02T14:06:54.852Z,101689.82
2023-04-02T14:09:53.986Z,101700.55
2023-04-02T14:13:13.491Z,101698.92
2023-04-02T14:15:59.561Z,101704.42
2023-04-02T14:18:41.352Z,101711.73
2023-04-02T14:21:35.965Z,101713.02
2023-04-02T14:24:23.485Z,101713.45
2023-04-02T14:27:04.881Z,101717.57
2023-04-02T14:29:55.942Z,101727.23
2023-04-02T14:32:49.293Z,101725.71
2023-04-02T14:35:20.768Z,101733.41
2023-04-02T14:37:58.620Z,101727.54
2023-04-02T14:40:37.131Z,101728.80
2023-04-02T14:43:17.336Z,101740.33
2023-04-02T14:45:51.737Z,101747.80
2023-04-02T14:48:43.836Z,101746.23
2023-04-02T14:51:23.690Z,101738.41
2023-04-02T14:54:04.254Z,101746.54
2023-04-02T14:56:39.816Z,101756.10
2023-04-02T14:59:24.415Z,101759.67
2023-04-02T15:02:00.688Z,101758.84
2023-04-02T15:05:08.070Z,101758.49
2023-04-02T15:07:45.552Z,101767.23
2023-04-02T15:10:34.286Z,101762.94
2023-04-02T15:13:08.134Z,101772.59
2023-04-02T15:15:49.164Z,101777.15
2023-04-02T15:18:18.304Z,101782.48
2023-04-02T15:21:17.194Z,101786.54
2023-04-02T15:24:04.465Z,101784.90
2023-04-02T15:26:45.598Z,101790.17
2023-04-02T15:29:45.943Z,101787.98
2023-04-02T15:32:32.500Z,101792.06
2023-04-02T15:35:28.267Z,101795.09
2023-04-02T15:38:05.528Z,101790.05
2023-04-02T15:41:14.164Z,101796.84
2023-04-02T15:44:09.718Z,101803.69
2023-04-02T15:47:08.691Z,101808.39
2023-04-02T15:49:52.188Z,101805.77
2023-04-02T15:53:04.869Z,101806.48
2023-04-02T15:55:39.507Z,101816.39
2023-04-02T15:58:45.722Z,101827.52
2023-04-02T16:01:41.442Z,101826.84
2023-04-02T16:04:35.265Z,101833.11
2023-04-02T16:07:19.280Z,101837.27
2023-04-02T16:10:02.790Z,101841.46
2023-04-02T16:12:33.795Z,101847.01
2023-04-02T16:15:18.025Z,101843.54
2023-04-02T16:17:52.884Z,101852.90
2023-04-02T16:20:28.599Z,101855.67
2023-04-02T16:23:11.388Z,101851.51
2023-04-02T16:25:53.798Z,101858.96
2023-04-02T16:28:26.791Z,101867.98
2023-04-02T16:31:18.340Z,101856.17
2023-04-02T16:34:15.043Z,101867.21
2023-04-02T16:37:27.071Z,101875.16
2023-04-02T16:40:14.273Z,101872.69
2023-04-02T16:42:54.904Z,101875.92
2023-04-02T16:45:38.674Z,101875.27
2023-04-02T16:48:15.068Z,101880.87
2023-04-02T16:50:58.658Z,101886.00
2023-04-02T16:53:32.612Z,101887.52
2023-04-02T16:56:24.495Z,101892.10
2023-04-02T16:59:19.747Z,101896.14
2023-04-02T17:02:02.988Z,101902.23
2023-04-02T17:05:06.453Z,101906.79
2023-04-02T17:07:46.426Z,101912.91
2023-04-02T17:10:27.005Z,101910.00
2023-04-02T17:13:13.040Z,101911.63
2023-04-02T17:15:47.249Z,101911.97
2023-04-02T17:18:24.988Z,101921.08
2023-04-02T17:20:54.062Z,101919.34
2023-04-02T17:23:25.078Z,101917.79
2023-04-02T17:25:58.547Z,101921.94
2023-04-02T17:28:36.957Z,101924.54
2023-04-02T17:31:35.450Z,101932.52
2023-04-02T17:34:15.559Z,101933.60
2023-04-02T17:37:21.326Z,101943.48
2023-04-02T17:40:04.248Z,101939.00
2023-04-02T17:42:39.345Z,101946.82
2023-04-02T17:45:37.385Z,101947.15
2023-04-02T17:48:22.408Z,101951.64
2023-04-02T17:51:17.475Z,101945.02
2023-04-02T17:54:08.908Z,101951.26
2023-04-02T17:56:51.818Z,101951.46
2023-04-02T17:59:32.185Z,101959.23
2023-04-02T18:02:27.802Z,101962.38
2023-04-02T18:05:16.522Z,101965.05
2023-04-02T18:07:52.415Z,101971.10
2023-04-02T18:10:34.025Z,101965.60
2023-04-02T18:13:14.767Z,101975.80
2023-04-02T18:16:31.749Z,101970.68
2023-04-02T18:19:16.397Z,101979.20
2023-04-02T18:22:00.066Z,101984.17
2023-04-02T18:24:53.740Z,101993.08
2023-04-02T18:27:31.278Z,101986.15
2023-04-02T18:30:12.089Z,101990.02
2023-04-02T18:33:02.348Z,101998.40
2023-04-02T18:35:43.377Z,101999.22
2023-04-02T18:38:21.718Z,101996.43
2023-04-02T18:41:01.570Z,101999.91
2023-04-02T18:43:58.211Z,102008.27
2023-04-02T18:46:41.420Z,102015.09
2023-04-02T18:49:26.523Z,102024.52
2023-04-02T18:52:00.429Z,102026.38
2023-04-02T18:54:36.871Z,102039.45
2023-04-02T18:57:20.270Z,102024.81
2023-04-02T18:59:57.380Z,102043.09
2023-04-02T19:02:40.677Z,102032.02
2023-04-02T19:05:24.109Z,102049.90
2023-04-02T19:08:02.310Z,102041.42
2023-04-02T19:10:37.509Z,102054.09
2023-04-02T19:13:15.540Z,102048.40
2023-04-02T19:16:06.349Z,102051.27
2023-04-02T19:18:53.006Z,102047.44
2023-04-02T19:21:31.312Z,102055.76
2023-04-02T19:24:30.694Z,102057.52
2023-04-02T19:27:18.582Z,102058.55
2023-04-02T19:29:58.460Z,102055.11
2023-04-02T19:32:37.323Z,102063.55
2023-04-02T19:35:28.762Z,102069.94
2023-04-02T19:38:16.380Z,102072.73
2023-04-02T19:41:06.477Z,102069.31
2023-04-02T19:43:35.305Z,102069.41
2023-04-02T19:46:03.860Z,102076.27
2023-04-02T19:48:59.817Z,102073.67
2023-04-02T19:51:27.974Z,102075.52
2023-04-02T19:53:56.321Z,102079.79
2023-04-02T19:56:24.616Z,102079.77
2023-04-02T19:58:52.866Z,102083.19
2023-04-02T20:01:21.128Z,102078.67
2023-04-02T20:03:49.337Z,102084.15
2023-04-02T20:06:18.193Z,102090.49
2023-04-02T20:08:46.361Z,102087.23
2023-04-02T20:11:14.782Z,102090.14
2023-04-02T20:13:43.412Z,102096.98
2023-04-02T20:16:11.673Z,102098.59
2023-04-02T20:18:40.045Z,102099.54
2023-04-02T20:21:08.758Z,102109.02
2023-04-02T20:23:36.968Z,102118.33
2023-04-02T20:26:06.223Z,102107.29
2023-04-02T20:28:34.755Z,102105.34
2023-04-02T20:31:12.238Z,102112.80
2023-04-02T20:33:41.620Z,102119.50
2023-04-02T20:36:16.084Z,102116.73
2023-04-02T20:38:45.789Z,102112.75
2023-04-02T20:41:16.524Z,102117.21
2023-04-02T20:43:44.978Z,102111.17
2023-04-02T20:46:13.622Z,102119.38
2023-04-02T20:48:47.689Z,102122.15
2023-04-02T20:51:16.092Z,102120.93
2023-04-02T20:53:44.686Z,102128.63
2023-04-02T20:56:15.600Z,102126.77
2023-04-02T20:58:44.287Z,102122.66
2023-04-02T21:01:17.285Z,102127.23
2023-04-02T21:03:46.498Z,102133.38
2023-04-02T21:06:16.698Z,102136.80
2023-04-02T21:08:44.971Z,102129.11
2023-04-02T21:11:14.231Z,102135.61
2023-04-02T21:13:44.400Z,102139.45
2023-04-02T21:16:19.465Z,102142.23
2023-04-02T21:18:49.855Z,102145.94
2023-04-02T21:21:20.624Z,102152.64
2023-04-02T21:23:55.491Z,102149.82
2023-04-02T21:26:29.425Z,102154.05
2023-04-02T21:28:57.669Z,102158.46
2023-04-02T21:31:28.569Z,102163.23
2023-04-02T21:34:00.146Z,102161.34
2023-04-02T21:36:31.620Z,102162.68
2023-04-02T21:39:06.169Z,102153.67
2023-04-02T21:41:36.866Z,102157.04
2023-04-02T21:44:10.361Z,102154.38
2023-04-02T21:46:42.738Z,102152.75
2023-04-02T21:49:13.520Z,102167.27
2023-04-02T21:51:42.850Z,102169.66
2023-04-02T21:54:11.476Z,102166.15
2023-04-02T21:56:43.123Z,102167.30
2023-04-02T21:59:13.348Z,102167.95
2023-04-02T22:01:48.645Z,102166.98
2023-04-02T22:04:22.657Z,102169.42
2023-04-02T22:06:52.348Z,102169.09
2023-04-02T22:09:23.860Z,102169.09
2023-04-02T22:11:56.174Z,102176.45
2023-04-02T22:14:24.271Z,102170.12
2023-04-02T22:16:52.458Z,102177.85
2023-04-02T22:19:20.894Z,102177.17
2023-04-02T22:21:49.252Z,102174.29
2023-04-02T22:24:25.505Z,102181.20
2023-04-02T22:26:53.882Z,102180.98
2023-04-02T22:29:22.129Z,102181.02
2023-04-02T22:31:50.511Z,102186.20
2023-04-02T22:34:18.731Z,102191.54
2023-04-02T22:36:46.835Z,102196.20
2023-04-02T22:39:17.069Z,102187.84
2023-04-02T22:41:45.455Z,102190.52
2023-04-02T22:44:15.464Z,102186.61
2023-04-02T22:46:43.670Z,102187.21
2023-04-02T22:49:11.918Z,102190.51
2023-04-02T22:51:40.120Z,102192.11
2023-04-02T22:54:08.233Z,102190.13
2023-04-02T22:56:37.652Z,102193.98
2023-04-02T22:59:06.113Z,102190.48
2023-04-02T23:01:36.086Z,102192.08
2023-04-02T23:04:05.412Z,102187.43
2023-04-02T23:06:33.886Z,102186.61
2023-04-02T23:09:02.108Z,102187.83
2023-04-02T23:11:30.389Z,102194.30
2023-04-02T23:13:58.941Z,102189.36
2023-04-02T23:16:28.935Z,102187.34
2023-04-02T23:18:57.712Z,102191.67
2023-04-02T23:21:26.515Z,102192.33
2023-04-02T23:23:55.417Z,102190.77
2023-04-02T23:26:29.128Z,102187.10
2023-04-02T23:29:00.690Z,102193.51
2023-04-02T23:31:29.056Z,102190.23
2023-04-02T23:33:57.292Z,102189.48
2023-04-02T23:36:34.397Z,102199.29
2023-04-02T23:39:09.644Z,102198.30
2023-04-02T23:41:40.475Z,102200.92
2023-04-02T23:44:09.418Z,102203.89
2023-04-02T23:46:37.853Z,102198.97
2023-04-02T23:49:06.208Z,102210.05
2023-04-02T23:51:34.662Z,102213.02
2023-04-02T23:54:02.732Z,102204.43
2023-04-02T23:56:30.877Z,102211.30
2023-04-02T23:58:59.286Z,102220.80
